createdAt,value
2022-12-01T00:00:55.660Z,18.6
2022-12-01T00:02:10.961Z,18.2
2022-12-01T00:03:27.259Z,19.1
2022-12-01T00:04:43.547Z,19.4
2022-12-01T00:05:59.843Z,19.6
2022-12-01T00:07:16.152Z,19.4
2022-12-01T00:08:32.426Z,18.6
2022-12-01T00:09:48.736Z,18.7
2022-12-01T00:11:05.033Z,19.1
2022-12-01T00:12:21.318Z,19.1
2022-12-01T00:13:37.616Z,18.3
2022-12-01T00:14:53.907Z,18.2
2022-12-01T00:16:10.199Z,18.6
2022-12-01T00:17:26.497Z,18.4
2022-12-01T00:18:41.801Z,19.7
2022-12-01T00:19:58.108Z,19.1
2022-12-01T00:21:14.393Z,18.1
2022-12-01T00:22:30.693Z,18.5
2022-12-01T00:23:46.992Z,18.5
2022-12-01T00:25:03.297Z,19.1
2022-12-01T00:26:19.589Z,17.9
2022-12-01T00:27:35.881Z,18.7
2022-12-01T00:28:52.169Z,19
2022-12-01T00:30:08.456Z,18.2
2022-12-01T00:31:24.749Z,17.7
2022-12-01T00:32:41.043Z,17.3
2022-12-01T00:33:57.338Z,17.6
2022-12-01T00:35:12.651Z,18.6
2022-12-01T00:36:28.954Z,19.1
2022-12-01T00:37:45.264Z,18.8
2022-12-01T00:39:01.542Z,17.5
2022-12-01T00:40:17.831Z,19.1
2022-12-01T00:41:34.129Z,19.5
2022-12-01T00:42:50.436Z,17.4
2022-12-01T00:44:06.728Z,18.8
2022-12-01T00:45:23.014Z,17.8
2022-12-01T00:46:39.315Z,18.7
2022-12-01T00:47:55.600Z,18.5
2022-12-01T00:49:11.891Z,17.5
2022-12-01T00:50:28.195Z,17.7
2022-12-01T00:51:43.512Z,17.5
2022-12-01T00:52:59.814Z,19.1
2022-12-01T00:54:16.093Z,18.2
2022-12-01T00:55:32.390Z,19
2022-12-01T00:56:48.692Z,19.4
2022-12-01T00:58:04.978Z,18.4
2022-12-01T00:59:21.281Z,19.8
2022-12-01T01:00:37.582Z,18.1
2022-12-01T01:01:53.878Z,18.1
2022-12-01T01:03:10.158Z,18.1
2022-12-01T01:04:26.444Z,18.1
2022-12-01T01:05:42.742Z,17.6
2022-12-01T01:06:59.035Z,18.7
2022-12-01T01:08:14.353Z,18
2022-12-01T01:09:30.640Z,17.7
2022-12-01T01:10:46.936Z,17.7
2022-12-01T01:12:03.244Z,18.3
2022-12-01T01:13:19.533Z,18.3
2022-12-01T01:14:35.838Z,18.7
2022-12-01T01:15:52.114Z,17.5
2022-12-01T01:17:08.413Z,18.4
2022-12-01T01:18:24.712Z,19
2022-12-01T01:19:41.013Z,18
2022-12-01T01:20:57.303Z,18.6
2022-12-01T01:22:13.596Z,19.5
2022-12-01T01:23:29.899Z,17.9
2022-12-01T01:24:45.194Z,18.2
2022-12-01T01:26:01.495Z,18.8
2022-12-01T01:28:34.081Z,19.3
2022-12-01T01:29:50.378Z,18.6
2022-12-01T01:31:06.667Z,19.8
2022-12-01T01:32:22.972Z,19.3
2022-12-01T01:33:39.265Z,18.5
2022-12-01T01:34:55.558Z,18.9
2022-12-01T01:36:11.856Z,18.6
2022-12-01T01:37:28.158Z,18.6
2022-12-01T01:38:44.438Z,18.9
2022-12-01T01:40:00.749Z,18.4
2022-12-01T01:41:17.032Z,17.7
2022-12-01T01:42:32.350Z,18.8
2022-12-01T01:43:48.633Z,18.4
2022-12-01T01:45:04.932Z,18.2
2022-12-01T01:46:21.221Z,18.3
2022-12-01T01:47:37.516Z,17.7
2022-12-01T01:48:53.815Z,16.8
2022-12-01T01:50:10.109Z,16.9
2022-12-01T01:51:26.406Z,17.8
2022-12-01T01:52:42.702Z,17.1
2022-12-01T01:53:58.992Z,16.1
2022-12-01T01:55:15.293Z,17.7
2022-12-01T01:56:31.586Z,17.6
2022-12-01T01:57:47.879Z,17.7
2022-12-01T01:59:03.191Z,17.7
2022-12-01T02:00:19.487Z,17
2022-12-01T02:01:35.778Z,17.3
2022-12-01T02:02:52.084Z,16.3
2022-12-01T02:04:08.376Z,16.8
2022-12-01T02:05:24.664Z,16.5
2022-12-01T02:06:40.965Z,16.8
2022-12-01T02:07:57.265Z,16.7
2022-12-01T02:09:13.551Z,16.4
2022-12-01T02:10:29.844Z,17.3
2022-12-01T02:11:46.135Z,16.6
2022-12-01T02:13:02.445Z,16.1
2022-12-01T02:14:18.721Z,16.8
2022-12-01T02:15:34.032Z,16.9
2022-12-01T02:16:50.337Z,16.7
2022-12-01T02:18:06.629Z,17.1
2022-12-01T02:19:22.930Z,16.3
2022-12-01T02:20:39.223Z,16.2
2022-12-01T02:21:55.513Z,17.1
2022-12-01T02:23:11.808Z,16.2
2022-12-01T02:24:28.112Z,16
2022-12-01T02:25:44.408Z,15.2
2022-12-01T02:27:00.691Z,15.7
2022-12-01T02:28:16.986Z,16.1
2022-12-01T02:29:33.286Z,16.8
2022-12-01T02:30:49.572Z,16.1
2022-12-01T02:32:04.888Z,15.3
2022-12-01T02:33:21.182Z,16
2022-12-01T02:34:37.481Z,15.6
2022-12-01T02:35:53.776Z,16.7
2022-12-01T02:37:10.070Z,18.1
2022-12-01T02:38:26.378Z,15.5
2022-12-01T02:39:42.657Z,16.4
2022-12-01T02:40:58.954Z,15.6
2022-12-01T02:42:15.247Z,15.5
2022-12-01T02:43:31.542Z,16.3
2022-12-01T02:44:47.830Z,15.6
2022-12-01T02:46:04.133Z,15.3
2022-12-01T02:47:20.423Z,15.2
2022-12-01T02:48:35.733Z,16.6
2022-12-01T02:49:52.040Z,15.8
2022-12-01T02:51:08.326Z,16.5
2022-12-01T02:52:24.624Z,15.4
2022-12-01T02:53:40.922Z,15.7
2022-12-01T02:54:56.227Z,15.2
2022-12-01T02:56:12.528Z,16.1
2022-12-01T02:57:28.834Z,14.7
2022-12-01T02:58:45.124Z,15
2022-12-01T03:00:01.417Z,14.5
2022-12-01T03:01:17.701Z,14.7
2022-12-01T03:02:34.007Z,14.5
2022-12-01T03:03:50.287Z,14.4
2022-12-01T03:05:06.591Z,15.3
2022-12-01T03:07:39.193Z,15.1
2022-12-01T03:08:55.471Z,15.7
2022-12-01T03:10:11.779Z,14.8
2022-12-01T03:11:27.073Z,14.9
2022-12-01T03:12:43.378Z,14.8
2022-12-01T03:13:59.667Z,15.3
2022-12-01T03:15:15.963Z,15.2
2022-12-01T03:16:32.259Z,14.4
2022-12-01T03:17:48.559Z,15.8
2022-12-01T03:19:04.859Z,16.3
2022-12-01T03:20:21.144Z,15.5
2022-12-01T03:21:37.439Z,13.9
2022-12-01T03:22:53.741Z,14.2
2022-12-01T03:24:10.030Z,14.7
2022-12-01T03:25:26.321Z,13.8
2022-12-01T03:26:42.622Z,14.1
2022-12-01T03:27:57.932Z,14.1
2022-12-01T03:29:14.231Z,14.2
2022-12-01T03:30:30.529Z,15
2022-12-01T03:31:46.823Z,14.4
2022-12-01T03:33:03.110Z,14.5
2022-12-01T03:34:19.415Z,14.9
2022-12-01T03:35:35.702Z,14.3
2022-12-01T03:36:51.998Z,15.3
2022-12-01T03:38:08.285Z,14.7
2022-12-01T03:39:24.588Z,14.3
2022-12-01T03:40:40.883Z,13.8
2022-12-01T03:41:57.165Z,15.3
2022-12-01T03:43:13.460Z,15.8
2022-12-01T03:44:28.784Z,15.1
2022-12-01T03:45:45.069Z,15.3
2022-12-01T03:47:01.364Z,15.5
2022-12-01T03:48:17.668Z,16
2022-12-01T03:49:33.956Z,14.8
2022-12-01T03:50:50.263Z,14.9
2022-12-01T03:52:06.554Z,15.5
2022-12-01T03:53:22.840Z,15.3
2022-12-01T03:54:39.149Z,14.9
2022-12-01T03:55:55.436Z,14.1
2022-12-01T03:57:11.726Z,14.9
2022-12-01T03:58:28.022Z,14.9
2022-12-01T03:59:44.320Z,14.3
2022-12-01T04:00:59.623Z,14.3
2022-12-01T04:02:15.924Z,15
2022-12-01T04:03:32.230Z,14.5
2022-12-01T04:04:48.520Z,14.7
2022-12-01T04:06:04.810Z,14.8
2022-12-01T04:07:21.112Z,13.9
2022-12-01T04:08:37.407Z,14
2022-12-01T04:09:53.693Z,13.8
2022-12-01T04:11:10.002Z,14.2
2022-12-01T04:12:26.286Z,13.8
2022-12-01T04:13:42.586Z,14.3
2022-12-01T04:14:58.875Z,14.3
2022-12-01T04:16:15.170Z,13.9
2022-12-01T04:17:30.481Z,13.8
2022-12-01T04:18:46.784Z,15.2
2022-12-01T04:20:03.064Z,14
2022-12-01T04:21:19.375Z,13.9
2022-12-01T04:22:35.665Z,13.5
2022-12-01T04:23:51.966Z,14.1
2022-12-01T04:25:08.257Z,13.7
2022-12-01T04:26:24.547Z,13.2
2022-12-01T04:27:40.840Z,14.1
2022-12-01T04:28:57.127Z,12.6
2022-12-01T04:30:13.422Z,13.1
2022-12-01T04:31:29.723Z,13.5
2022-12-01T04:32:46.030Z,12.2
2022-12-01T04:34:01.000Z,13.1
2022-12-01T04:35:17.617Z,12.7
2022-12-01T04:36:33.917Z,13.4
2022-12-01T04:37:50.215Z,13.2
2022-12-01T04:39:06.510Z,12.9
2022-12-01T04:40:22.812Z,13.5
2022-12-01T04:41:39.110Z,14.2
2022-12-01T04:42:55.389Z,13.1
2022-12-01T04:44:11.682Z,12.9
2022-12-01T04:45:27.978Z,13.8
2022-12-01T04:46:44.271Z,13.4
2022-12-01T04:48:00.572Z,13.3
2022-12-01T04:49:16.865Z,13
2022-12-01T04:50:32.176Z,13.5
2022-12-01T04:51:48.483Z,14.2
2022-12-01T04:53:04.774Z,13.5
2022-12-01T04:54:21.057Z,13.2
2022-12-01T04:55:37.358Z,13.4
2022-12-01T04:56:53.664Z,13.1
2022-12-01T04:58:09.957Z,13.1
2022-12-01T04:59:26.243Z,12.9
2022-12-01T05:00:42.531Z,12.6
2022-12-01T05:01:58.847Z,12.4
2022-12-01T05:03:15.125Z,13.4
2022-12-01T05:04:31.424Z,13.2
2022-12-01T05:05:47.710Z,12.5
2022-12-01T05:07:03.031Z,13.1
2022-12-01T05:08:19.327Z,12.9
2022-12-01T05:09:35.621Z,13
2022-12-01T05:10:51.916Z,13.7
2022-12-01T05:12:08.206Z,13
2022-12-01T05:13:24.505Z,13.3
2022-12-01T05:14:40.802Z,13.3
2022-12-01T05:15:57.093Z,14
2022-12-01T05:17:13.386Z,12.7
2022-12-01T05:18:29.691Z,12.7
2022-12-01T05:19:45.981Z,12.4
2022-12-01T05:21:02.281Z,13.4
2022-12-01T05:22:18.566Z,13.2
2022-12-01T05:23:33.889Z,13.3
2022-12-01T05:24:50.164Z,14.3
2022-12-01T05:26:06.469Z,12.4
2022-12-01T05:27:22.754Z,14.6
2022-12-01T05:28:39.057Z,14.1
2022-12-01T05:29:55.359Z,13.6
2022-12-01T05:31:11.646Z,13
2022-12-01T05:32:27.946Z,13.6
2022-12-01T05:33:44.239Z,13.3
2022-12-01T05:35:00.532Z,13
2022-12-01T05:36:16.830Z,13.2
2022-12-01T05:37:33.114Z,14
2022-12-01T05:38:49.422Z,13.5
2022-12-01T05:40:04.729Z,14
2022-12-01T05:41:21.023Z,13.5
2022-12-01T05:42:37.321Z,13.4
2022-12-01T05:43:53.617Z,14.2
2022-12-01T05:45:09.901Z,13.5
2022-12-01T05:46:26.197Z,14.3
2022-12-01T05:47:42.496Z,13.7
2022-12-01T05:48:58.797Z,14.1
2022-12-01T05:50:15.087Z,13.2
2022-12-01T05:51:31.383Z,14.3
2022-12-01T05:52:47.671Z,14.1
2022-12-01T05:54:03.982Z,13.6
2022-12-01T05:55:20.271Z,13.8
2022-12-01T05:56:35.574Z,14.4
2022-12-01T05:57:51.862Z,14.3
2022-12-01T05:59:08.160Z,13.7
2022-12-01T06:00:24.459Z,14.3
2022-12-01T06:01:40.760Z,14.4
2022-12-01T06:02:57.053Z,16.3
2022-12-01T06:04:13.342Z,16.6
2022-12-01T06:05:29.647Z,20.2
2022-12-01T06:06:45.925Z,20.6
2022-12-01T06:08:02.227Z,19.6
2022-12-01T06:09:18.527Z,16.2
2022-12-01T06:10:34.820Z,17.4
2022-12-01T06:11:51.105Z,15.6
2022-12-01T06:13:06.416Z,15
2022-12-01T06:14:22.727Z,14.6
2022-12-01T06:15:39.005Z,14.5
2022-12-01T06:16:55.316Z,14.9
2022-12-01T06:18:11.604Z,14.6
2022-12-01T06:19:27.900Z,14.7
2022-12-01T06:20:44.197Z,14.9
2022-12-01T06:22:00.486Z,14.5
2022-12-01T06:23:16.787Z,14.2
2022-12-01T06:24:33.085Z,14.1
2022-12-01T06:25:49.325Z,14
2022-12-01T06:27:05.623Z,13
2022-12-01T06:28:21.865Z,13.6
2022-12-01T06:29:37.130Z,14.8
2022-12-01T06:30:53.411Z,14.7
2022-12-01T06:32:09.704Z,13.9
2022-12-01T06:33:25.962Z,13.5
2022-12-01T06:34:42.208Z,14
2022-12-01T06:35:58.437Z,13.6
2022-12-01T06:37:14.688Z,13.7
2022-12-01T06:38:30.929Z,14.1
2022-12-01T06:39:47.168Z,14.4
2022-12-01T06:41:03.425Z,14.1
2022-12-01T06:42:19.649Z,14.9
2022-12-01T06:43:35.895Z,15.8
2022-12-01T06:44:52.137Z,14.9
2022-12-01T06:46:07.391Z,14.4
2022-12-01T06:47:23.629Z,14
2022-12-01T06:48:39.871Z,14.7
2022-12-01T06:49:56.107Z,14.9
2022-12-01T06:51:12.363Z,14.2
2022-12-01T06:52:28.597Z,14.3
2022-12-01T06:53:44.837Z,13.5
2022-12-01T06:55:01.078Z,13.5
2022-12-01T06:56:17.318Z,14.7
2022-12-01T06:57:33.570Z,13.5
2022-12-01T06:58:49.800Z,15.1
2022-12-01T07:00:06.053Z,13.9
2022-12-01T07:01:22.281Z,14.5
2022-12-01T07:02:37.535Z,13.8
2022-12-01T07:03:53.773Z,13.7
2022-12-01T07:05:10.030Z,14
2022-12-01T07:06:26.259Z,15.3
2022-12-01T07:07:42.495Z,15.1
2022-12-01T07:08:58.743Z,13.4
2022-12-01T07:10:14.005Z,14.1
2022-12-01T07:11:30.246Z,14.2
2022-12-01T07:12:46.477Z,14.9
2022-12-01T07:14:02.720Z,14.6
2022-12-01T07:15:18.979Z,14.7
2022-12-01T07:16:35.213Z,15.4
2022-12-01T07:17:51.444Z,21.6
2022-12-01T07:19:07.695Z,15.4
2022-12-01T07:20:23.936Z,14.5
2022-12-01T07:21:40.174Z,14.5
2022-12-01T07:22:56.422Z,14.3
2022-12-01T07:24:12.666Z,14.8
2022-12-01T07:25:28.899Z,15.3
2022-12-01T07:26:44.154Z,14.6
2022-12-01T07:28:00.387Z,14.8
2022-12-01T07:29:16.633Z,13.8
2022-12-01T07:30:32.000Z,14.3
2022-12-01T07:31:49.115Z,14.2
2022-12-01T07:33:05.350Z,14.3
2022-12-01T07:34:21.600Z,14.5
2022-12-01T07:35:37.830Z,14.6
2022-12-01T07:36:54.072Z,14.4
2022-12-01T07:38:10.320Z,15.1
2022-12-01T07:39:26.565Z,13.5
2022-12-01T07:40:42.814Z,14.6
2022-12-01T07:41:59.047Z,14.2
2022-12-01T07:43:14.305Z,13.7
2022-12-01T07:44:30.000Z,13.9
2022-12-01T07:45:46.783Z,14.5
2022-12-01T07:47:03.032Z,15.4
2022-12-01T07:48:19.273Z,13.4
2022-12-01T07:49:35.497Z,14.4
2022-12-01T07:50:51.736Z,14.2
2022-12-01T07:52:07.996Z,14
2022-12-01T07:53:24.219Z,14.8
2022-12-01T07:54:40.470Z,15.4
2022-12-01T07:55:56.698Z,15.2
2022-12-01T07:57:12.957Z,15.1
2022-12-01T07:58:29.181Z,13.9
2022-12-01T07:59:44.453Z,14.5
2022-12-01T08:01:00.684Z,15
2022-12-01T08:02:16.939Z,14.3
2022-12-01T08:03:33.185Z,14.6
2022-12-01T08:04:49.414Z,14.7
2022-12-01T08:06:05.659Z,14.5
2022-12-01T08:07:21.888Z,14
2022-12-01T08:08:38.135Z,13.7
2022-12-01T08:09:54.374Z,14.4
2022-12-01T08:11:10.618Z,14.6
2022-12-01T08:12:26.848Z,13.8
2022-12-01T08:13:43.099Z,13.9
2022-12-01T08:14:59.346Z,13.3
2022-12-01T08:16:14.585Z,14.4
2022-12-01T08:17:30.834Z,15.1
2022-12-01T08:18:47.066Z,14.4
2022-12-01T08:20:03.324Z,14.6
2022-12-01T08:21:19.556Z,14.9
2022-12-01T08:22:35.805Z,14.5
2022-12-01T08:23:52.033Z,13.8
2022-12-01T08:25:08.275Z,15.1
2022-12-01T08:26:24.524Z,15.5
2022-12-01T08:27:40.761Z,14.3
2022-12-01T08:28:57.009Z,14.6
2022-12-01T08:30:13.244Z,14.7
2022-12-01T08:31:29.485Z,14.6
2022-12-01T08:32:44.755Z,15.2
2022-12-01T08:34:00.977Z,15.7
2022-12-01T08:35:17.000Z,14.8
2022-12-01T08:36:33.457Z,14.6
2022-12-01T08:37:49.717Z,14.1
2022-12-01T08:39:05.955Z,13.8
2022-12-01T08:40:22.192Z,13.5
2022-12-01T08:41:38.424Z,14.2
2022-12-01T08:42:54.674Z,15.1
2022-12-01T08:44:10.911Z,14.2
2022-12-01T08:45:27.154Z,13.6
2022-12-01T08:46:43.405Z,14.2
2022-12-01T08:47:59.624Z,14.4
2022-12-01T08:49:14.886Z,14.9
2022-12-01T08:50:31.123Z,14.8
2022-12-01T08:51:47.376Z,14.3
2022-12-01T08:53:03.614Z,16
2022-12-01T08:54:19.848Z,16
2022-12-01T08:55:36.097Z,15.4
2022-12-01T08:56:52.339Z,15.4
2022-12-01T08:58:08.571Z,16
2022-12-01T08:59:24.807Z,16.5
2022-12-01T09:00:41.062Z,16.2
2022-12-01T09:01:57.299Z,16
2022-12-01T09:03:13.539Z,15.2
2022-12-01T09:04:29.771Z,15.8
2022-12-01T09:05:45.036Z,15.5
2022-12-01T09:07:01.291Z,14.7
2022-12-01T09:08:17.526Z,15.1
2022-12-01T09:09:33.750Z,15
2022-12-01T09:10:49.990Z,15.1
2022-12-01T09:12:06.247Z,14.8
2022-12-01T09:13:22.488Z,14.2
2022-12-01T09:14:38.725Z,14.2
2022-12-01T09:15:54.974Z,14.7
2022-12-01T09:17:11.202Z,15
2022-12-01T09:18:27.463Z,14.9
2022-12-01T09:19:43.687Z,15
2022-12-01T09:20:59.927Z,14.9
2022-12-01T09:22:16.299Z,15.9
2022-12-01T09:23:32.532Z,15.7
2022-12-01T09:24:48.761Z,15.7
2022-12-01T09:26:05.018Z,16.2
2022-12-01T09:27:21.265Z,15.6
2022-12-01T09:28:37.500Z,15.5
2022-12-01T09:29:53.741Z,16
2022-12-01T09:31:09.978Z,15.2
2022-12-01T09:32:26.216Z,16.1
2022-12-01T09:33:42.460Z,15.3
2022-12-01T09:34:58.698Z,15.2
2022-12-01T09:36:14.944Z,15.3
2022-12-01T09:37:31.185Z,15.6
2022-12-01T09:38:46.440Z,15
2022-12-01T09:40:02.684Z,16
2022-12-01T09:41:18.916Z,15.6
2022-12-01T09:42:35.155Z,14.9
2022-12-01T09:43:51.410Z,15.8
2022-12-01T09:45:07.631Z,15.2
2022-12-01T09:46:23.892Z,14.5
2022-12-01T09:47:40.128Z,14.8
2022-12-01T09:48:56.363Z,15
2022-12-01T09:50:12.602Z,14.3
2022-12-01T09:51:28.841Z,14
2022-12-01T09:52:45.090Z,15
2022-12-01T09:54:01.334Z,14.6
2022-12-01T09:55:16.576Z,15
2022-12-01T09:56:32.827Z,14.9
2022-12-01T09:57:49.065Z,15
2022-12-01T09:59:05.311Z,15.6
2022-12-01T10:00:21.547Z,15.5
2022-12-01T10:01:37.804Z,15.8
2022-12-01T10:02:54.024Z,15.6
2022-12-01T10:04:10.280Z,15.1
2022-12-01T10:05:26.510Z,15.7
2022-12-01T10:06:42.748Z,15.6
2022-12-01T10:07:59.003Z,16.1
2022-12-01T10:09:15.226Z,16.5
2022-12-01T10:10:31.487Z,17
2022-12-01T10:11:46.722Z,16.9
2022-12-01T10:13:02.975Z,15.4
2022-12-01T10:14:19.214Z,16.4
2022-12-01T10:15:35.446Z,15.5
2022-12-01T10:16:51.688Z,15.6
2022-12-01T10:18:07.926Z,16
2022-12-01T10:19:24.184Z,15.4
2022-12-01T10:20:40.426Z,15.5
2022-12-01T10:21:56.655Z,15.6
2022-12-01T10:23:12.902Z,15.5
2022-12-01T10:24:29.131Z,15.9
2022-12-01T10:25:45.374Z,16
2022-12-01T10:27:01.627Z,16.8
2022-12-01T10:28:16.880Z,18.1
2022-12-01T10:29:33.119Z,18.9
2022-12-01T10:30:49.368Z,18
2022-12-01T10:32:05.602Z,17.7
2022-12-01T10:33:21.853Z,17.8
2022-12-01T10:34:38.084Z,17.1
2022-12-01T10:35:54.322Z,17.2
2022-12-01T10:37:10.578Z,17.8
2022-12-01T10:38:26.804Z,16.9
2022-12-01T10:42:07.440Z,13
2022-12-01T10:43:23.665Z,14.2
2022-12-01T10:44:39.917Z,18.2
2022-12-01T10:45:56.160Z,17.6
2022-12-01T10:47:12.400Z,17.4
2022-12-01T10:48:28.628Z,17.7
2022-12-01T10:49:44.874Z,17.1
2022-12-01T10:51:01.118Z,17
2022-12-01T10:52:17.355Z,18.5
2022-12-01T10:53:33.597Z,18.2
2022-12-01T10:54:49.855Z,18.5
2022-12-01T10:56:06.072Z,17.8
2022-12-01T10:57:22.322Z,17.7
2022-12-01T10:58:38.568Z,19
2022-12-01T10:59:54.805Z,18.1
2022-12-01T11:01:11.034Z,18
2022-12-01T11:02:27.289Z,19.3
2022-12-01T11:03:43.527Z,17.9
2022-12-01T11:04:59.754Z,18.8
2022-12-01T11:06:16.009Z,18.5
2022-12-01T11:07:31.272Z,19
2022-12-01T11:08:46.532Z,18.5
2022-12-01T11:10:02.780Z,18.6
2022-12-01T11:11:18.998Z,18.5
2022-12-01T11:12:35.243Z,18.4
2022-12-01T11:13:51.484Z,18.3
2022-12-01T11:15:07.730Z,18.6
2022-12-01T11:16:23.966Z,17.5
2022-12-01T11:17:40.220Z,18.5
2022-12-01T11:18:56.458Z,17.8
2022-12-01T11:20:12.695Z,17.5
2022-12-01T11:21:28.929Z,18.3
2022-12-01T11:22:45.175Z,18.4
2022-12-01T11:24:01.419Z,18
2022-12-01T11:25:16.683Z,17.7
2022-12-01T11:26:32.899Z,17.3
2022-12-01T11:27:49.139Z,17.4
2022-12-01T11:29:05.393Z,17.7
2022-12-01T11:30:21.639Z,18
2022-12-01T11:31:37.879Z,18.3
2022-12-01T11:32:54.114Z,18.9
2022-12-01T11:34:10.486Z,20.3
2022-12-01T11:35:26.864Z,18.3
2022-12-01T11:36:43.238Z,18.9
2022-12-01T11:37:59.480Z,18.4
2022-12-01T11:39:14.737Z,18.6
2022-12-01T11:40:30.972Z,18.5
2022-12-01T11:41:47.224Z,19
2022-12-01T11:43:03.464Z,18.3
2022-12-01T11:44:19.700Z,18.3
2022-12-01T11:45:35.937Z,19.3
2022-12-01T11:46:52.181Z,18.7
2022-12-01T11:48:08.428Z,18.7
2022-12-01T11:49:24.675Z,19.2
2022-12-01T11:50:40.904Z,19
2022-12-01T11:51:57.153Z,18.4
2022-12-01T11:53:13.383Z,18.8
2022-12-01T11:54:29.617Z,18.3
2022-12-01T11:55:44.900Z,18.7
2022-12-01T11:57:01.126Z,19.6
2022-12-01T11:58:17.369Z,19
2022-12-01T11:59:33.613Z,18.3
2022-12-01T12:00:49.863Z,19.3
2022-12-01T12:02:06.102Z,18.2
2022-12-01T12:03:21.355Z,19.1
2022-12-01T12:04:36.606Z,18.7
2022-12-01T12:05:52.853Z,18.7
2022-12-01T12:07:08.121Z,19.2
2022-12-01T12:08:23.363Z,19.6
2022-12-01T12:09:39.605Z,19.8
2022-12-01T12:10:55.837Z,19.9
2022-12-01T12:12:12.083Z,19.3
2022-12-01T12:13:28.323Z,19.9
2022-12-01T12:14:44.572Z,19.5
2022-12-01T12:16:00.806Z,21.1
2022-12-01T12:17:17.050Z,19.7
2022-12-01T12:18:33.289Z,19.1
2022-12-01T12:19:49.520Z,20.8
2022-12-01T12:21:05.768Z,19.3
2022-12-01T12:22:22.020Z,19.7
2022-12-01T12:23:38.252Z,19.5
2022-12-01T12:24:53.507Z,21.1
2022-12-01T12:26:09.738Z,19.4
2022-12-01T12:27:25.988Z,21.6
2022-12-01T12:28:42.223Z,19.9
2022-12-01T12:29:58.473Z,21
2022-12-01T12:31:14.708Z,20.8
2022-12-01T12:32:30.958Z,20.1
2022-12-01T12:33:46.204Z,21
2022-12-01T12:35:01.476Z,20.7
2022-12-01T12:36:17.699Z,21.1
2022-12-01T12:37:32.973Z,20.3
2022-12-01T12:38:48.229Z,20.2
2022-12-01T12:40:04.458Z,20.6
2022-12-01T12:41:20.700Z,19.9
2022-12-01T12:42:36.942Z,20.9
2022-12-01T12:43:53.193Z,20.7
2022-12-01T12:45:09.431Z,22.1
2022-12-01T12:46:25.677Z,20.9
2022-12-01T12:47:41.901Z,20.7
2022-12-01T12:48:58.146Z,20.9
2022-12-01T12:50:14.385Z,21
2022-12-01T12:51:30.643Z,21.2
2022-12-01T12:52:46.870Z,22.4
2022-12-01T12:54:03.121Z,22
2022-12-01T12:55:18.377Z,21.4
2022-12-01T12:56:34.616Z,22.4
2022-12-01T12:57:50.865Z,21.3
2022-12-01T12:59:07.089Z,21.7
2022-12-01T13:00:23.322Z,22
2022-12-01T13:01:39.566Z,20.7
2022-12-01T13:02:55.810Z,21.9
2022-12-01T13:04:11.076Z,20.6
2022-12-01T13:05:26.324Z,21.4
2022-12-01T13:06:42.584Z,21.1
2022-12-01T13:07:58.825Z,21.8
2022-12-01T13:09:15.065Z,21.1
2022-12-01T13:10:31.292Z,21.7
2022-12-01T13:11:47.533Z,21.5
2022-12-01T13:13:03.780Z,21.9
2022-12-01T13:14:20.026Z,21.2
2022-12-01T13:15:36.252Z,22.1
2022-12-01T13:16:52.495Z,22.4
2022-12-01T13:18:08.740Z,20.6
2022-12-01T13:19:24.981Z,22
2022-12-01T13:20:41.217Z,22.1
2022-12-01T13:21:56.470Z,21.9
2022-12-01T13:23:12.722Z,20.8
2022-12-01T13:24:28.951Z,21.5
2022-12-01T13:25:45.203Z,21
2022-12-01T13:27:01.437Z,22
2022-12-01T13:28:17.679Z,22.2
2022-12-01T13:29:33.922Z,22
2022-12-01T13:30:49.185Z,22.2
2022-12-01T13:32:04.442Z,20.8
2022-12-01T13:33:19.707Z,21.9
2022-12-01T13:34:34.966Z,21.7
2022-12-01T13:35:51.204Z,21.6
2022-12-01T13:37:07.453Z,22.9
2022-12-01T13:38:23.672Z,22
2022-12-01T13:39:39.920Z,21.2
2022-12-01T13:40:56.177Z,21.5
2022-12-01T13:42:12.410Z,23.1
2022-12-01T13:43:28.648Z,22.1
2022-12-01T13:44:44.890Z,21.6
2022-12-01T13:46:01.118Z,21.3
2022-12-01T13:47:17.367Z,22.2
2022-12-01T13:48:33.603Z,21.6
2022-12-01T13:49:49.849Z,22.3
2022-12-01T13:51:05.101Z,21.6
2022-12-01T13:52:21.335Z,23
2022-12-01T13:53:37.587Z,22.6
2022-12-01T13:54:53.825Z,21.2
2022-12-01T13:56:10.072Z,22.7
2022-12-01T13:57:26.305Z,22.2
2022-12-01T13:58:42.537Z,22.1
2022-12-01T13:59:57.800Z,22.6
2022-12-01T14:01:13.065Z,22
2022-12-01T14:02:28.323Z,20.9
2022-12-01T14:03:43.590Z,22.2
2022-12-01T14:04:59.822Z,21.7
2022-12-01T14:06:16.074Z,21.9
2022-12-01T14:07:32.308Z,21.5
2022-12-01T14:08:48.550Z,21.7
2022-12-01T14:10:04.787Z,20.9
2022-12-01T14:11:21.020Z,21.4
2022-12-01T14:12:37.268Z,21.3
2022-12-01T14:13:53.514Z,21.6
2022-12-01T14:15:09.753Z,20.6
2022-12-01T14:16:25.985Z,21.1
2022-12-01T14:17:42.224Z,21
2022-12-01T14:18:58.476Z,19.8
2022-12-01T14:20:13.733Z,19.2
2022-12-01T14:21:29.976Z,20.1
2022-12-01T14:22:46.212Z,21.1
2022-12-01T14:24:02.443Z,20.3
2022-12-01T14:25:18.698Z,20.6
2022-12-01T14:26:34.923Z,20.5
2022-12-01T14:27:51.175Z,20.1
2022-12-01T14:29:06.423Z,20
2022-12-01T14:30:21.695Z,20.4
2022-12-01T14:31:36.944Z,21
2022-12-01T14:32:52.209Z,20.7
2022-12-01T14:34:08.445Z,20.6
2022-12-01T14:35:24.698Z,21.1
2022-12-01T14:36:40.929Z,21.4
2022-12-01T14:37:57.161Z,19.8
2022-12-01T14:39:13.403Z,20.9
2022-12-01T14:40:29.658Z,20.8
2022-12-01T14:41:45.898Z,21.9
2022-12-01T14:43:02.134Z,20.9
2022-12-01T14:44:18.378Z,21.4
2022-12-01T14:45:34.610Z,20.8
2022-12-01T14:46:50.861Z,19.8
2022-12-01T14:48:07.087Z,19.3
2022-12-01T14:49:22.350Z,20.5
2022-12-01T14:50:38.591Z,19.6
2022-12-01T14:51:54.833Z,19.8
2022-12-01T14:53:11.071Z,20
2022-12-01T14:54:27.315Z,19.2
2022-12-01T14:55:43.552Z,19.7
2022-12-01T14:56:58.806Z,21.5
2022-12-01T14:58:14.094Z,20.3
2022-12-01T14:59:29.335Z,19.7
2022-12-01T15:00:45.586Z,21
2022-12-01T15:02:01.820Z,21.5
2022-12-01T15:03:17.075Z,21.4
2022-12-01T15:04:32.340Z,20.2
2022-12-01T15:05:48.567Z,21
2022-12-01T15:07:04.818Z,20.6
2022-12-01T15:08:21.048Z,20.5
2022-12-01T15:09:37.302Z,19.6
2022-12-01T15:10:53.532Z,20.7
2022-12-01T15:12:09.784Z,21.2
2022-12-01T15:13:26.014Z,20.5
2022-12-01T15:14:42.262Z,20.5
2022-12-01T15:15:58.491Z,20.9
2022-12-01T15:17:14.735Z,20.5
2022-12-01T15:18:30.973Z,22
2022-12-01T15:19:47.213Z,23.6
2022-12-01T15:21:02.472Z,21.1
2022-12-01T15:22:18.719Z,20.9
2022-12-01T15:23:34.957Z,21.3
2022-12-01T15:24:51.203Z,23.3
2022-12-01T15:26:07.440Z,23.3
2022-12-01T15:27:23.711Z,20.5
2022-12-01T15:28:39.934Z,20.6
2022-12-01T15:29:55.254Z,21.2
2022-12-01T15:31:10.549Z,21.2
2022-12-01T15:32:25.822Z,21.6
2022-12-01T15:33:41.076Z,20.9
2022-12-01T15:34:57.321Z,21.2
2022-12-01T15:36:13.617Z,21.5
2022-12-01T15:37:29.910Z,20.7
2022-12-01T15:38:46.202Z,21.4
2022-12-01T15:40:02.498Z,21.4
2022-12-01T15:41:18.807Z,21.7
2022-12-01T15:42:35.085Z,21.6
2022-12-01T15:43:51.391Z,20.5
2022-12-01T15:45:07.682Z,21.8
2022-12-01T15:46:23.973Z,20.4
2022-12-01T15:47:40.274Z,20.3
2022-12-01T15:48:56.561Z,20.9
2022-12-01T15:50:11.865Z,20.4
2022-12-01T15:51:28.174Z,19.8
2022-12-01T15:52:44.454Z,20.5
2022-12-01T15:54:00.746Z,19.8
2022-12-01T15:55:17.045Z,21.4
2022-12-01T15:56:33.345Z,19.5
2022-12-01T15:57:49.643Z,20.5
2022-12-01T15:59:04.946Z,19.6
2022-12-01T16:00:20.270Z,19.6
2022-12-01T16:01:36.553Z,19.4
2022-12-01T16:02:51.866Z,20.1
2022-12-01T16:04:07.180Z,20.7
2022-12-01T16:05:23.470Z,19.7
2022-12-01T16:06:39.765Z,19.6
2022-12-01T16:07:56.074Z,20.5
2022-12-01T16:09:12.355Z,21
2022-12-01T16:10:28.656Z,21.4
2022-12-01T16:11:44.941Z,21
2022-12-01T16:13:01.252Z,19.9
2022-12-01T16:14:17.539Z,21
2022-12-01T16:15:33.845Z,20.5
2022-12-01T16:16:50.121Z,21.5
2022-12-01T16:18:06.425Z,20.3
2022-12-01T16:19:22.717Z,19.9
2022-12-01T16:20:38.032Z,20.4
2022-12-01T16:21:54.333Z,19.7
2022-12-01T16:23:10.625Z,20.5
2022-12-01T16:24:26.907Z,19.8
2022-12-01T16:25:43.202Z,21
2022-12-01T16:26:59.511Z,19.2
2022-12-01T16:28:15.797Z,18.9
2022-12-01T16:29:31.115Z,20.4
2022-12-01T16:30:46.437Z,20.1
2022-12-01T16:32:01.739Z,19.8
2022-12-01T16:33:17.052Z,20.3
2022-12-01T16:34:33.356Z,20.6
2022-12-01T16:35:49.631Z,20.1
2022-12-01T16:37:05.931Z,20.1
2022-12-01T16:38:22.228Z,19.9
2022-12-01T16:39:38.514Z,18.9
2022-12-01T16:40:54.822Z,19.5
2022-12-01T16:42:11.112Z,19.3
2022-12-01T16:43:27.410Z,21.2
2022-12-01T16:44:43.707Z,20.8
2022-12-01T16:45:59.994Z,19.5
2022-12-01T16:47:16.282Z,21.1
2022-12-01T16:48:32.582Z,19.6
2022-12-01T16:49:47.901Z,19.7
2022-12-01T16:51:04.204Z,21.2
2022-12-01T16:52:20.481Z,19.7
2022-12-01T16:53:36.785Z,20.6
2022-12-01T16:54:53.073Z,21.6
2022-12-01T16:56:09.376Z,20.6
2022-12-01T16:57:25.663Z,20.5
2022-12-01T16:58:40.974Z,21
2022-12-01T16:59:56.292Z,21.3
2022-12-01T17:01:12.587Z,20.8
2022-12-01T17:02:28.888Z,22
2022-12-01T17:03:45.168Z,21.4
2022-12-01T17:05:01.468Z,22.1
2022-12-01T17:06:17.766Z,22.3